sensor_id;sensor_type;location;lat;lon;timestamp;temperature;humidity
62583;DHT22;48641;51.676;5.808;2023-05-27T00:00:07;20.90;59.00
62583;DHT22;48641;51.676;5.808;2023-05-27T00:02:33;20.90;59.00
62583;DHT22;48641;51.676;5.808;2023-05-27T00:04:59;20.90;58.90
62583;DHT22;48641;51.676;5.808;2023-05-27T00:07:24;20.90;59.00
62583;DHT22;48641;51.676;5.808;2023-05-27T00:09:50;20.90;58.90
62583;DHT22;48641;51.676;5.808;2023-05-27T00:12:16;20.90;58.90
62583;DHT22;48641;51.676;5.808;2023-05-27T00:14:42;20.90;58.90
62583;DHT22;48641;51.676;5.808;2023-05-27T00:17:08;20.90;58.90
62583;DHT22;48641;51.676;5.808;2023-05-27T00:19:40;20.90;58.80
62583;DHT22;48641;51.676;5.808;2023-05-27T00:22:06;20.90;58.80
62583;DHT22;48641;51.676;5.808;2023-05-27T00:24:34;20.90;58.80
62583;DHT22;48641;51.676;5.808;2023-05-27T00:27:05;20.80;58.80
62583;DHT22;48641;51.676;5.808;2023-05-27T00:29:35;20.80;58.80
62583;DHT22;48641;51.676;5.808;2023-05-27T00:32:01;20.80;58.80
62583;DHT22;48641;51.676;5.808;2023-05-27T00:34:31;20.80;58.90
62583;DHT22;48641;51.676;5.808;2023-05-27T00:36:57;20.80;58.80
62583;DHT22;48641;51.676;5.808;2023-05-27T00:39:22;20.80;58.90
62583;DHT22;48641;51.676;5.808;2023-05-27T00:41:49;20.80;58.80
62583;DHT22;48641;51.676;5.808;2023-05-27T00:44:16;20.80;58.90
62583;DHT22;48641;51.676;5.808;2023-05-27T00:46:42;20.80;58.80
62583;DHT22;48641;51.676;5.808;2023-05-27T00:49:08;20.80;58.80
62583;DHT22;48641;51.676;5.808;2023-05-27T00:51:33;20.80;58.70
62583;DHT22;48641;51.676;5.808;2023-05-27T00:53:59;20.80;58.70
62583;DHT22;48641;51.676;5.808;2023-05-27T00:56:25;20.80;58.70
62583;DHT22;48641;51.676;5.808;2023-05-27T00:58:51;20.80;58.70
62583;DHT22;48641;51.676;5.808;2023-05-27T01:01:17;20.80;58.70
62583;DHT22;48641;51.676;5.808;2023-05-27T01:03:44;20.70;58.70
62583;DHT22;48641;51.676;5.808;2023-05-27T01:11:43;20.70;58.70
62583;DHT22;48641;51.676;5.808;2023-05-27T01:14:11;20.70;58.80
62583;DHT22;48641;51.676;5.808;2023-05-27T01:16:39;20.70;58.80
62583;DHT22;48641;51.676;5.808;2023-05-27T01:19:13;20.70;58.80
62583;DHT22;48641;51.676;5.808;2023-05-27T01:21:41;20.70;58.80
62583;DHT22;48641;51.676;5.808;2023-05-27T01:24:10;20.70;58.70
62583;DHT22;48641;51.676;5.808;2023-05-27T01:26:36;20.70;58.70
62583;DHT22;48641;51.676;5.808;2023-05-27T01:29:02;20.70;58.70
62583;DHT22;48641;51.676;5.808;2023-05-27T01:31:47;20.70;58.70
62583;DHT22;48641;51.676;5.808;2023-05-27T01:34:16;20.60;58.60
62583;DHT22;48641;51.676;5.808;2023-05-27T01:36:51;20.60;59.60
62583;DHT22;48641;51.676;5.808;2023-05-27T01:39:22;20.60;58.60
62583;DHT22;48641;51.676;5.808;2023-05-27T01:41:49;20.60;58.60
62583;DHT22;48641;51.676;5.808;2023-05-27T01:44:16;20.60;58.60
62583;DHT22;48641;51.676;5.808;2023-05-27T01:46:42;20.60;58.60
62583;DHT22;48641;51.676;5.808;2023-05-27T01:49:09;20.60;58.70
62583;DHT22;48641;51.676;5.808;2023-05-27T01:51:35;20.60;58.70
62583;DHT22;48641;51.676;5.808;2023-05-27T01:54:02;20.60;58.60
62583;DHT22;48641;51.676;5.808;2023-05-27T01:56:28;20.60;58.70
62583;DHT22;48641;51.676;5.808;2023-05-27T01:58:54;20.60;58.60
62583;DHT22;48641;51.676;5.808;2023-05-27T02:01:20;20.60;58.50
62583;DHT22;48641;51.676;5.808;2023-05-27T02:03:47;20.50;58.40
62583;DHT22;48641;51.676;5.808;2023-05-27T02:06:13;20.50;58.40
62583;DHT22;48641;51.676;5.808;2023-05-27T02:08:38;20.50;58.40
62583;DHT22;48641;51.676;5.808;2023-05-27T02:11:04;20.50;58.40
62583;DHT22;48641;51.676;5.808;2023-05-27T02:13:29;20.50;58.40
62583;DHT22;48641;51.676;5.808;2023-05-27T02:15:55;20.50;58.40
62583;DHT22;48641;51.676;5.808;2023-05-27T02:18:21;20.50;58.40
62583;DHT22;48641;51.676;5.808;2023-05-27T02:20:46;20.50;58.40
62583;DHT22;48641;51.676;5.808;2023-05-27T02:23:12;20.50;58.40
62583;DHT22;48641;51.676;5.808;2023-05-27T02:25:38;20.50;58.40
62583;DHT22;48641;51.676;5.808;2023-05-27T02:28:03;20.50;58.40
62583;DHT22;48641;51.676;5.808;2023-05-27T02:30:29;20.50;58.40
62583;DHT22;48641;51.676;5.808;2023-05-27T02:32:56;20.50;58.40
62583;DHT22;48641;51.676;5.808;2023-05-27T02:35:22;20.50;58.40
62583;DHT22;48641;51.676;5.808;2023-05-27T02:37:48;20.50;58.30
62583;DHT22;48641;51.676;5.808;2023-05-27T02:40:26;20.40;58.20
62583;DHT22;48641;51.676;5.808;2023-05-27T02:42:52;20.40;58.20
62583;DHT22;48641;51.676;5.808;2023-05-27T02:45:17;20.40;59.30
62583;DHT22;48641;51.676;5.808;2023-05-27T02:47:43;20.40;58.30
62583;DHT22;48641;51.676;5.808;2023-05-27T02:50:09;20.40;58.40
62583;DHT22;48641;51.676;5.808;2023-05-27T02:52:34;20.40;58.40
62583;DHT22;48641;51.676;5.808;2023-05-27T02:55:00;20.40;58.30
62583;DHT22;48641;51.676;5.808;2023-05-27T02:57:26;20.40;58.40
62583;DHT22;48641;51.676;5.808;2023-05-27T02:59:51;20.40;58.30
62583;DHT22;48641;51.676;5.808;2023-05-27T03:02:17;20.40;58.30
62583;DHT22;48641;51.676;5.808;2023-05-27T03:04:43;20.40;58.40
62583;DHT22;48641;51.676;5.808;2023-05-27T03:07:08;20.40;58.30
62583;DHT22;48641;51.676;5.808;2023-05-27T03:09:34;20.40;58.30
62583;DHT22;48641;51.676;5.808;2023-05-27T03:11:59;20.40;58.30
62583;DHT22;48641;51.676;5.808;2023-05-27T03:14:25;20.40;58.20
62583;DHT22;48641;51.676;5.808;2023-05-27T03:16:51;20.40;58.20
62583;DHT22;48641;51.676;5.808;2023-05-27T03:19:16;20.30;58.20
62583;DHT22;48641;51.676;5.808;2023-05-27T03:21:42;20.30;58.20
62583;DHT22;48641;51.676;5.808;2023-05-27T03:24:07;20.30;58.20
62583;DHT22;48641;51.676;5.808;2023-05-27T03:26:33;20.30;58.20
62583;DHT22;48641;51.676;5.808;2023-05-27T03:28:58;20.30;58.20
62583;DHT22;48641;51.676;5.808;2023-05-27T03:31:24;20.30;58.20
62583;DHT22;48641;51.676;5.808;2023-05-27T03:33:50;20.30;58.20
62583;DHT22;48641;51.676;5.808;2023-05-27T03:36:15;20.30;58.30
62583;DHT22;48641;51.676;5.808;2023-05-27T03:38:41;20.30;58.20
62583;DHT22;48641;51.676;5.808;2023-05-27T03:41:07;20.30;58.20
62583;DHT22;48641;51.676;5.808;2023-05-27T03:43:32;20.30;58.10
62583;DHT22;48641;51.676;5.808;2023-05-27T03:45:58;20.20;58.10
62583;DHT22;48641;51.676;5.808;2023-05-27T03:48:23;20.30;58.10
62583;DHT22;48641;51.676;5.808;2023-05-27T03:50:49;20.30;58.10
62583;DHT22;48641;51.676;5.808;2023-05-27T03:53:14;20.20;58.00
62583;DHT22;48641;51.676;5.808;2023-05-27T03:55:40;20.20;58.10
62583;DHT22;48641;51.676;5.808;2023-05-27T03:58:06;20.20;58.00
62583;DHT22;48641;51.676;5.808;2023-05-27T04:00:33;20.20;58.00
62583;DHT22;48641;51.676;5.808;2023-05-27T04:03:01;20.20;58.10
62583;DHT22;48641;51.676;5.808;2023-05-27T04:05:27;20.20;58.10
62583;DHT22;48641;51.676;5.808;2023-05-27T04:07:52;20.20;58.20
62583;DHT22;48641;51.676;5.808;2023-05-27T04:10:18;20.20;58.10
62583;DHT22;48641;51.676;5.808;2023-05-27T04:12:44;20.20;58.10
62583;DHT22;48641;51.676;5.808;2023-05-27T04:15:09;20.20;58.00
62583;DHT22;48641;51.676;5.808;2023-05-27T04:17:35;20.20;58.00
62583;DHT22;48641;51.676;5.808;2023-05-27T04:20:01;20.20;58.00
62583;DHT22;48641;51.676;5.808;2023-05-27T04:22:36;20.20;58.00
62583;DHT22;48641;51.676;5.808;2023-05-27T04:25:02;20.20;58.00
62583;DHT22;48641;51.676;5.808;2023-05-27T04:27:30;20.20;58.00
62583;DHT22;48641;51.676;5.808;2023-05-27T04:29:55;20.20;58.00
62583;DHT22;48641;51.676;5.808;2023-05-27T04:32:21;20.10;58.00
62583;DHT22;48641;51.676;5.808;2023-05-27T04:34:46;20.10;59.00
62583;DHT22;48641;51.676;5.808;2023-05-27T04:37:12;20.10;58.00
62583;DHT22;48641;51.676;5.808;2023-05-27T04:39:38;20.10;58.10
62583;DHT22;48641;51.676;5.808;2023-05-27T04:42:11;20.10;58.00
62583;DHT22;48641;51.676;5.808;2023-05-27T04:44:38;20.10;58.10
62583;DHT22;48641;51.676;5.808;2023-05-27T04:47:05;20.10;58.10
62583;DHT22;48641;51.676;5.808;2023-05-27T04:49:30;20.10;57.90
62583;DHT22;48641;51.676;5.808;2023-05-27T04:51:59;20.10;57.90
62583;DHT22;48641;51.676;5.808;2023-05-27T04:54:25;20.10;57.90
62583;DHT22;48641;51.676;5.808;2023-05-27T04:56:51;20.10;57.90
62583;DHT22;48641;51.676;5.808;2023-05-27T04:59:18;20.10;57.90
62583;DHT22;48641;51.676;5.808;2023-05-27T05:01:45;20.10;58.00
62583;DHT22;48641;51.676;5.808;2023-05-27T05:04:34;20.10;57.90
62583;DHT22;48641;51.676;5.808;2023-05-27T05:06:59;20.00;57.90
62583;DHT22;48641;51.676;5.808;2023-05-27T05:09:25;20.00;57.90
62583;DHT22;48641;51.676;5.808;2023-05-27T05:11:51;20.00;58.00
62583;DHT22;48641;51.676;5.808;2023-05-27T05:14:16;20.00;58.00
62583;DHT22;48641;51.676;5.808;2023-05-27T05:16:42;20.00;58.00
62583;DHT22;48641;51.676;5.808;2023-05-27T05:19:07;20.00;58.10
62583;DHT22;48641;51.676;5.808;2023-05-27T05:21:33;20.00;58.00
62583;DHT22;48641;51.676;5.808;2023-05-27T05:23:59;20.00;57.90
62583;DHT22;48641;51.676;5.808;2023-05-27T05:26:24;20.00;57.90
62583;DHT22;48641;51.676;5.808;2023-05-27T05:28:51;20.00;57.90
62583;DHT22;48641;51.676;5.808;2023-05-27T05:31:16;20.00;57.90
62583;DHT22;48641;51.676;5.808;2023-05-27T05:33:42;20.00;58.00
62583;DHT22;48641;51.676;5.808;2023-05-27T05:36:08;20.00;58.00
62583;DHT22;48641;51.676;5.808;2023-05-27T05:38:33;20.00;57.90
62583;DHT22;48641;51.676;5.808;2023-05-27T05:41:00;19.90;57.90
62583;DHT22;48641;51.676;5.808;2023-05-27T05:43:25;19.90;57.80
62583;DHT22;48641;51.676;5.808;2023-05-27T05:45:51;19.90;57.90
62583;DHT22;48641;51.676;5.808;2023-05-27T05:48:17;20.00;57.90
62583;DHT22;48641;51.676;5.808;2023-05-27T05:50:42;19.90;57.90
62583;DHT22;48641;51.676;5.808;2023-05-27T05:53:09;19.90;58.00
62583;DHT22;48641;51.676;5.808;2023-05-27T05:55:35;19.90;58.00
62583;DHT22;48641;51.676;5.808;2023-05-27T05:58:01;19.90;58.00
62583;DHT22;48641;51.676;5.808;2023-05-27T06:00:26;19.90;57.90
62583;DHT22;48641;51.676;5.808;2023-05-27T06:02:52;19.90;58.00
62583;DHT22;48641;51.676;5.808;2023-05-27T06:05:18;19.90;57.90
62583;DHT22;48641;51.676;5.808;2023-05-27T06:07:44;19.90;57.90
62583;DHT22;48641;51.676;5.808;2023-05-27T06:10:10;19.90;58.00
62583;DHT22;48641;51.676;5.808;2023-05-27T06:12:36;19.90;58.00
62583;DHT22;48641;51.676;5.808;2023-05-27T06:15:02;19.90;58.00
62583;DHT22;48641;51.676;5.808;2023-05-27T06:17:28;19.90;58.00
62583;DHT22;48641;51.676;5.808;2023-05-27T06:19:53;19.90;58.10
62583;DHT22;48641;51.676;5.808;2023-05-27T06:22:19;19.90;58.00
62583;DHT22;48641;51.676;5.808;2023-05-27T06:24:44;19.90;58.00
62583;DHT22;48641;51.676;5.808;2023-05-27T06:27:10;19.90;58.00
62583;DHT22;48641;51.676;5.808;2023-05-27T06:29:36;19.90;58.00
62583;DHT22;48641;51.676;5.808;2023-05-27T06:32:01;19.90;58.00
62583;DHT22;48641;51.676;5.808;2023-05-27T06:34:27;19.90;58.00
62583;DHT22;48641;51.676;5.808;2023-05-27T06:36:52;19.90;57.90
62583;DHT22;48641;51.676;5.808;2023-05-27T06:39:18;19.80;57.90
62583;DHT22;48641;51.676;5.808;2023-05-27T06:41:43;19.80;57.90
62583;DHT22;48641;51.676;5.808;2023-05-27T06:44:09;19.80;57.90
62583;DHT22;48641;51.676;5.808;2023-05-27T06:46:35;19.80;58.00
62583;DHT22;48641;51.676;5.808;2023-05-27T06:49:00;19.80;57.90
62583;DHT22;48641;51.676;5.808;2023-05-27T06:51:26;19.80;59.00
62583;DHT22;48641;51.676;5.808;2023-05-27T06:53:52;19.80;58.00
62583;DHT22;48641;51.676;5.808;2023-05-27T06:56:18;19.80;57.90
62583;DHT22;48641;51.676;5.808;2023-05-27T06:58:45;19.80;57.90
62583;DHT22;48641;51.676;5.808;2023-05-27T07:01:11;19.80;57.90
62583;DHT22;48641;51.676;5.808;2023-05-27T07:03:37;19.80;57.90
62583;DHT22;48641;51.676;5.808;2023-05-27T07:06:02;19.80;57.90
62583;DHT22;48641;51.676;5.808;2023-05-27T07:08:28;19.80;57.90
62583;DHT22;48641;51.676;5.808;2023-05-27T07:10:54;19.80;57.90
62583;DHT22;48641;51.676;5.808;2023-05-27T07:13:19;19.80;57.90
62583;DHT22;48641;51.676;5.808;2023-05-27T07:15:45;19.80;57.90
62583;DHT22;48641;51.676;5.808;2023-05-27T07:18:11;19.80;58.00
62583;DHT22;48641;51.676;5.808;2023-05-27T07:20:38;19.80;57.90
62583;DHT22;48641;51.676;5.808;2023-05-27T07:23:04;19.80;58.00
62583;DHT22;48641;51.676;5.808;2023-05-27T07:25:29;19.80;58.00
62583;DHT22;48641;51.676;5.808;2023-05-27T07:27:55;19.80;58.00
62583;DHT22;48641;51.676;5.808;2023-05-27T07:30:20;19.80;58.10
62583;DHT22;48641;51.676;5.808;2023-05-27T07:32:46;19.80;58.10
62583;DHT22;48641;51.676;5.808;2023-05-27T07:35:12;19.80;58.00
62583;DHT22;48641;51.676;5.808;2023-05-27T07:37:37;19.80;58.00
62583;DHT22;48641;51.676;5.808;2023-05-27T07:40:04;19.80;58.00
62583;DHT22;48641;51.676;5.808;2023-05-27T07:42:29;19.80;58.00
62583;DHT22;48641;51.676;5.808;2023-05-27T07:44:55;19.80;57.90
62583;DHT22;48641;51.676;5.808;2023-05-27T07:47:21;19.70;57.90
62583;DHT22;48641;51.676;5.808;2023-05-27T07:49:46;19.70;57.90
62583;DHT22;48641;51.676;5.808;2023-05-27T07:52:12;19.70;57.90
62583;DHT22;48641;51.676;5.808;2023-05-27T07:54:37;19.70;57.90
62583;DHT22;48641;51.676;5.808;2023-05-27T07:57:03;19.70;57.90
62583;DHT22;48641;51.676;5.808;2023-05-27T07:59:29;19.70;57.90
62583;DHT22;48641;51.676;5.808;2023-05-27T08:01:55;19.70;57.90
62583;DHT22;48641;51.676;5.808;2023-05-27T08:04:21;19.70;58.00
62583;DHT22;48641;51.676;5.808;2023-05-27T08:06:46;19.70;58.00
62583;DHT22;48641;51.676;5.808;2023-05-27T08:09:12;19.70;58.00
62583;DHT22;48641;51.676;5.808;2023-05-27T08:11:37;19.70;58.10
62583;DHT22;48641;51.676;5.808;2023-05-27T08:14:03;19.70;58.00
62583;DHT22;48641;51.676;5.808;2023-05-27T08:16:29;19.70;58.00
62583;DHT22;48641;51.676;5.808;2023-05-27T08:18:56;19.70;58.00
62583;DHT22;48641;51.676;5.808;2023-05-27T08:21:22;19.70;58.00
62583;DHT22;48641;51.676;5.808;2023-05-27T08:23:47;19.70;58.10
62583;DHT22;48641;51.676;5.808;2023-05-27T08:26:13;19.70;58.00
62583;DHT22;48641;51.676;5.808;2023-05-27T08:28:39;19.70;58.00
62583;DHT22;48641;51.676;5.808;2023-05-27T08:31:05;19.70;58.10
62583;DHT22;48641;51.676;5.808;2023-05-27T08:33:31;19.70;58.00
62583;DHT22;48641;51.676;5.808;2023-05-27T08:35:57;19.70;58.10
62583;DHT22;48641;51.676;5.808;2023-05-27T08:38:22;19.70;58.10
62583;DHT22;48641;51.676;5.808;2023-05-27T08:40:48;19.70;58.10
62583;DHT22;48641;51.676;5.808;2023-05-27T08:43:15;19.70;58.10
62583;DHT22;48641;51.676;5.808;2023-05-27T08:45:41;19.70;58.20
62583;DHT22;48641;51.676;5.808;2023-05-27T08:48:09;19.70;58.20
62583;DHT22;48641;51.676;5.808;2023-05-27T08:50:36;19.70;58.10
62583;DHT22;48641;51.676;5.808;2023-05-27T08:53:02;19.70;58.10
62583;DHT22;48641;51.676;5.808;2023-05-27T08:55:29;19.70;58.10
62583;DHT22;48641;51.676;5.808;2023-05-27T08:57:57;19.70;58.20
62583;DHT22;48641;51.676;5.808;2023-05-27T09:00:24;19.70;58.20
62583;DHT22;48641;51.676;5.808;2023-05-27T09:02:50;19.70;58.20
62583;DHT22;48641;51.676;5.808;2023-05-27T09:05:16;19.70;58.20
62583;DHT22;48641;51.676;5.808;2023-05-27T09:07:43;19.70;58.20
62583;DHT22;48641;51.676;5.808;2023-05-27T09:10:09;19.70;58.20
62583;DHT22;48641;51.676;5.808;2023-05-27T09:12:35;19.70;58.30
62583;DHT22;48641;51.676;5.808;2023-05-27T09:15:03;19.70;58.20
62583;DHT22;48641;51.676;5.808;2023-05-27T09:17:29;19.70;58.20
62583;DHT22;48641;51.676;5.808;2023-05-27T09:19:55;19.70;58.20
62583;DHT22;48641;51.676;5.808;2023-05-27T09:22:32;19.70;58.20
62583;DHT22;48641;51.676;5.808;2023-05-27T09:24:58;19.70;58.20
62583;DHT22;48641;51.676;5.808;2023-05-27T09:27:27;19.70;58.30
62583;DHT22;48641;51.676;5.808;2023-05-27T09:29:56;19.70;58.20
62583;DHT22;48641;51.676;5.808;2023-05-27T09:32:31;19.70;58.30
62583;DHT22;48641;51.676;5.808;2023-05-27T09:34:57;19.70;58.30
62583;DHT22;48641;51.676;5.808;2023-05-27T09:37:30;19.70;58.30
62583;DHT22;48641;51.676;5.808;2023-05-27T09:39:58;19.70;58.40
62583;DHT22;48641;51.676;5.808;2023-05-27T09:42:23;19.70;58.30
62583;DHT22;48641;51.676;5.808;2023-05-27T09:44:49;19.60;58.30
62583;DHT22;48641;51.676;5.808;2023-05-27T09:47:17;19.70;58.30
62583;DHT22;48641;51.676;5.808;2023-05-27T09:49:45;19.70;58.40
62583;DHT22;48641;51.676;5.808;2023-05-27T09:52:11;19.70;58.40
62583;DHT22;48641;51.676;5.808;2023-05-27T09:54:40;19.70;58.50
62583;DHT22;48641;51.676;5.808;2023-05-27T09:57:08;19.70;58.40
62583;DHT22;48641;51.676;5.808;2023-05-27T09:59:35;19.70;58.40
62583;DHT22;48641;51.676;5.808;2023-05-27T10:02:00;19.70;58.40
62583;DHT22;48641;51.676;5.808;2023-05-27T10:04:28;19.70;58.40
62583;DHT22;48641;51.676;5.808;2023-05-27T10:06:55;19.70;58.40
62583;DHT22;48641;51.676;5.808;2023-05-27T10:09:21;19.70;58.40
62583;DHT22;48641;51.676;5.808;2023-05-27T10:11:49;19.70;58.40
62583;DHT22;48641;51.676;5.808;2023-05-27T10:14:16;19.70;58.40
62583;DHT22;48641;51.676;5.808;2023-05-27T10:16:51;19.70;58.40
62583;DHT22;48641;51.676;5.808;2023-05-27T10:19:19;19.70;58.40
62583;DHT22;48641;51.676;5.808;2023-05-27T10:21:45;19.70;58.50
62583;DHT22;48641;51.676;5.808;2023-05-27T10:24:11;19.70;58.50
62583;DHT22;48641;51.676;5.808;2023-05-27T10:26:40;19.70;58.60
62583;DHT22;48641;51.676;5.808;2023-05-27T10:31:33;19.60;58.70
62583;DHT22;48641;51.676;5.808;2023-05-27T10:33:59;19.60;58.70
62583;DHT22;48641;51.676;5.808;2023-05-27T10:36:28;19.70;58.90
62583;DHT22;48641;51.676;5.808;2023-05-27T10:39:04;19.70;58.80
62583;DHT22;48641;51.676;5.808;2023-05-27T10:42:03;19.70;58.80
62583;DHT22;48641;51.676;5.808;2023-05-27T10:44:32;19.70;58.60
62583;DHT22;48641;51.676;5.808;2023-05-27T10:47:00;19.70;58.80
62583;DHT22;48641;51.676;5.808;2023-05-27T10:49:26;19.70;58.90
62583;DHT22;48641;51.676;5.808;2023-05-27T10:54:36;19.80;58.90
62583;DHT22;48641;51.676;5.808;2023-05-27T10:57:03;19.70;58.90
62583;DHT22;48641;51.676;5.808;2023-05-27T11:02:12;19.80;58.90
62583;DHT22;48641;51.676;5.808;2023-05-27T11:04:38;19.80;58.90
62583;DHT22;48641;51.676;5.808;2023-05-27T11:07:04;19.80;58.90
62583;DHT22;48641;51.676;5.808;2023-05-27T11:09:31;19.80;58.90
62583;DHT22;48641;51.676;5.808;2023-05-27T11:11:58;19.90;58.90
62583;DHT22;48641;51.676;5.808;2023-05-27T11:14:28;19.80;58.80
62583;DHT22;48641;51.676;5.808;2023-05-27T11:16:53;19.90;58.90
62583;DHT22;48641;51.676;5.808;2023-05-27T11:19:20;19.90;58.90
62583;DHT22;48641;51.676;5.808;2023-05-27T11:21:47;19.90;58.90
62583;DHT22;48641;51.676;5.808;2023-05-27T11:24:17;19.90;58.90
62583;DHT22;48641;51.676;5.808;2023-05-27T11:26:44;19.90;58.90
62583;DHT22;48641;51.676;5.808;2023-05-27T11:29:14;19.90;58.90
62583;DHT22;48641;51.676;5.808;2023-05-27T11:31:40;19.90;58.90
62583;DHT22;48641;51.676;5.808;2023-05-27T11:34:16;20.00;59.00
62583;DHT22;48641;51.676;5.808;2023-05-27T11:36:48;20.00;58.90
62583;DHT22;48641;51.676;5.808;2023-05-27T11:39:15;20.00;59.00
62583;DHT22;48641;51.676;5.808;2023-05-27T11:41:50;20.00;59.00
62583;DHT22;48641;51.676;5.808;2023-05-27T11:44:18;20.00;58.90
62583;DHT22;48641;51.676;5.808;2023-05-27T11:46:46;19.90;59.20
62583;DHT22;48641;51.676;5.808;2023-05-27T11:49:12;19.90;59.20
62583;DHT22;48641;51.676;5.808;2023-05-27T11:51:49;19.90;59.20
62583;DHT22;48641;51.676;5.808;2023-05-27T11:54:33;20.00;59.40
62583;DHT22;48641;51.676;5.808;2023-05-27T11:56:59;20.00;59.40
62583;DHT22;48641;51.676;5.808;2023-05-27T11:59:25;19.90;59.50
62583;DHT22;48641;51.676;5.808;2023-05-27T12:01:51;19.90;59.40
62583;DHT22;48641;51.676;5.808;2023-05-27T12:04:19;20.00;59.40
62583;DHT22;48641;51.676;5.808;2023-05-27T12:06:45;20.00;59.40
62583;DHT22;48641;51.676;5.808;2023-05-27T12:09:11;20.10;59.40
62583;DHT22;48641;51.676;5.808;2023-05-27T12:11:38;20.10;59.30
62583;DHT22;48641;51.676;5.808;2023-05-27T12:14:04;20.20;59.30
62583;DHT22;48641;51.676;5.808;2023-05-27T12:16:30;20.20;59.30
62583;DHT22;48641;51.676;5.808;2023-05-27T12:18:57;20.20;59.30
62583;DHT22;48641;51.676;5.808;2023-05-27T12:21:22;20.20;59.30
62583;DHT22;48641;51.676;5.808;2023-05-27T12:23:48;20.20;59.40
62583;DHT22;48641;51.676;5.808;2023-05-27T12:26:15;20.20;59.40
62583;DHT22;48641;51.676;5.808;2023-05-27T12:28:41;20.20;59.50
62583;DHT22;48641;51.676;5.808;2023-05-27T12:31:07;20.20;59.50
62583;DHT22;48641;51.676;5.808;2023-05-27T12:33:33;20.20;59.50
62583;DHT22;48641;51.676;5.808;2023-05-27T12:36:01;20.20;59.30
62583;DHT22;48641;51.676;5.808;2023-05-27T12:38:27;20.20;59.30
62583;DHT22;48641;51.676;5.808;2023-05-27T12:40:53;20.20;59.20
62583;DHT22;48641;51.676;5.808;2023-05-27T12:43:21;20.20;59.50
62583;DHT22;48641;51.676;5.808;2023-05-27T12:45:46;20.20;59.50
62583;DHT22;48641;51.676;5.808;2023-05-27T12:48:13;20.30;59.50
62583;DHT22;48641;51.676;5.808;2023-05-27T12:50:38;20.30;59.40
62583;DHT22;48641;51.676;5.808;2023-05-27T12:53:04;20.30;59.40
62583;DHT22;48641;51.676;5.808;2023-05-27T12:55:30;20.30;59.40
62583;DHT22;48641;51.676;5.808;2023-05-27T12:57:56;20.30;59.40
62583;DHT22;48641;51.676;5.808;2023-05-27T13:00:22;20.40;59.50
62583;DHT22;48641;51.676;5.808;2023-05-27T13:02:48;20.40;59.50
62583;DHT22;48641;51.676;5.808;2023-05-27T13:05:14;20.40;59.50
62583;DHT22;48641;51.676;5.808;2023-05-27T13:07:41;20.40;59.50
62583;DHT22;48641;51.676;5.808;2023-05-27T13:10:17;20.40;59.40
62583;DHT22;48641;51.676;5.808;2023-05-27T13:12:46;20.40;59.30
62583;DHT22;48641;51.676;5.808;2023-05-27T13:15:13;20.40;59.30
62583;DHT22;48641;51.676;5.808;2023-05-27T13:17:38;20.50;59.30
62583;DHT22;48641;51.676;5.808;2023-05-27T13:20:05;20.50;59.30
62583;DHT22;48641;51.676;5.808;2023-05-27T13:22:31;20.50;59.30
62583;DHT22;48641;51.676;5.808;2023-05-27T13:24:57;20.50;59.20
62583;DHT22;48641;51.676;5.808;2023-05-27T13:27:22;20.50;59.20
62583;DHT22;48641;51.676;5.808;2023-05-27T13:29:48;20.50;59.20
62583;DHT22;48641;51.676;5.808;2023-05-27T13:32:13;20.50;59.30
62583;DHT22;48641;51.676;5.808;2023-05-27T13:34:39;20.60;59.40
62583;DHT22;48641;51.676;5.808;2023-05-27T13:37:05;20.60;59.30
62583;DHT22;48641;51.676;5.808;2023-05-27T13:39:31;20.60;59.30
62583;DHT22;48641;51.676;5.808;2023-05-27T13:41:57;20.60;59.30
62583;DHT22;48641;51.676;5.808;2023-05-27T13:44:23;20.60;59.40
62583;DHT22;48641;51.676;5.808;2023-05-27T13:46:49;20.60;59.30
62583;DHT22;48641;51.676;5.808;2023-05-27T13:49:15;20.60;59.30
62583;DHT22;48641;51.676;5.808;2023-05-27T13:51:45;20.60;59.30
62583;DHT22;48641;51.676;5.808;2023-05-27T13:54:11;20.70;59.30
62583;DHT22;48641;51.676;5.808;2023-05-27T13:56:38;20.70;59.30
62583;DHT22;48641;51.676;5.808;2023-05-27T13:59:04;20.70;59.30
62583;DHT22;48641;51.676;5.808;2023-05-27T14:01:31;20.70;59.30
62583;DHT22;48641;51.676;5.808;2023-05-27T14:03:58;20.70;59.30
62583;DHT22;48641;51.676;5.808;2023-05-27T14:06:24;20.70;59.30
62583;DHT22;48641;51.676;5.808;2023-05-27T14:08:50;20.70;59.30
62583;DHT22;48641;51.676;5.808;2023-05-27T14:11:15;20.70;59.40
62583;DHT22;48641;51.676;5.808;2023-05-27T14:13:41;20.70;59.30
62583;DHT22;48641;51.676;5.808;2023-05-27T14:16:07;20.70;59.30
62583;DHT22;48641;51.676;5.808;2023-05-27T14:18:32;20.70;59.40
62583;DHT22;48641;51.676;5.808;2023-05-27T14:20:58;20.70;59.30
62583;DHT22;48641;51.676;5.808;2023-05-27T14:23:24;20.70;59.30
62583;DHT22;48641;51.676;5.808;2023-05-27T14:25:49;20.70;59.30
62583;DHT22;48641;51.676;5.808;2023-05-27T14:28:15;20.80;59.40
62583;DHT22;48641;51.676;5.808;2023-05-27T14:30:41;20.80;59.40
62583;DHT22;48641;51.676;5.808;2023-05-27T14:33:06;20.80;59.40
62583;DHT22;48641;51.676;5.808;2023-05-27T14:35:41;20.80;59.30
62583;DHT22;48641;51.676;5.808;2023-05-27T14:38:07;20.80;59.30
62583;DHT22;48641;51.676;5.808;2023-05-27T14:40:33;20.80;59.30
62583;DHT22;48641;51.676;5.808;2023-05-27T14:42:59;20.80;59.30
62583;DHT22;48641;51.676;5.808;2023-05-27T14:45:25;20.80;59.40
62583;DHT22;48641;51.676;5.808;2023-05-27T14:47:51;20.80;59.40
62583;DHT22;48641;51.676;5.808;2023-05-27T14:50:22;20.80;59.50
62583;DHT22;48641;51.676;5.808;2023-05-27T14:52:49;20.80;59.50
62583;DHT22;48641;51.676;5.808;2023-05-27T14:55:15;20.80;59.50
62583;DHT22;48641;51.676;5.808;2023-05-27T14:57:40;20.80;59.50
62583;DHT22;48641;51.676;5.808;2023-05-27T15:00:07;20.80;59.40
62583;DHT22;48641;51.676;5.808;2023-05-27T15:02:37;20.90;59.40
62583;DHT22;48641;51.676;5.808;2023-05-27T15:05:04;20.90;59.50
62583;DHT22;48641;51.676;5.808;2023-05-27T15:07:31;20.90;59.40
62583;DHT22;48641;51.676;5.808;2023-05-27T15:09:57;20.90;59.40
62583;DHT22;48641;51.676;5.808;2023-05-27T15:12:23;20.90;59.40
62583;DHT22;48641;51.676;5.808;2023-05-27T15:14:49;20.90;59.40
62583;DHT22;48641;51.676;5.808;2023-05-27T15:17:15;20.90;59.40
62583;DHT22;48641;51.676;5.808;2023-05-27T15:19:40;20.90;59.40
62583;DHT22;48641;51.676;5.808;2023-05-27T15:22:06;20.90;59.50
62583;DHT22;48641;51.676;5.808;2023-05-27T15:24:35;20.90;59.60
62583;DHT22;48641;51.676;5.808;2023-05-27T15:27:01;20.90;59.60
62583;DHT22;48641;51.676;5.808;2023-05-27T15:29:30;20.90;59.50
62583;DHT22;48641;51.676;5.808;2023-05-27T15:31:56;20.90;59.50
62583;DHT22;48641;51.676;5.808;2023-05-27T15:34:21;20.90;59.40
62583;DHT22;48641;51.676;5.808;2023-05-27T15:36:47;21.00;59.50
62583;DHT22;48641;51.676;5.808;2023-05-27T15:39:12;21.00;59.40